CST,Max TemperatureF,Mean TemperatureF,Min TemperatureF,Max Dew PointF,MeanDew PointF,Min DewpointF,Max Humidity, Mean Humidity, Min Humidity, Max Sea Level PressureIn, Mean Sea Level PressureIn, Min Sea Level PressureIn, Max VisibilityMiles, Mean VisibilityMiles, Min VisibilityMiles, Max Wind SpeedMPH, Mean Wind SpeedMPH, Max Gust SpeedMPH,PrecipitationIn, CloudCover, Events, WindDirDegrees
2012-12-1,70,59,47,51,48,43,86,65,44,30.25,30.19,30.13,10,10,10,16,8,23,0.00,2,,177
2012-12-2,69,65,60,61,57,51,84,77,69,30.21,30.16,30.13,10,10,10,23,11,30,0.00,7,,193
2012-12-3,76,68,59,61,56,52,90,68,46,30.19,30.13,30.08,10,10,10,18,10,25,0.00,3,,183
2012-12-4,72,64,55,63,58,51,100,84,68,30.22,30.14,30.09,10,10,2,32,9,52,0.15,8,Rain,224
2012-12-5,63,54,45,50,39,33,86,61,36,30.30,30.22,30.11,10,10,10,18,7,24,0.00,5,,54
2012-12-6,64,54,44,58,50,33,100,80,60,30.09,30.02,29.95,10,7,0,9,2,12,0.03,8,Fog-Rain,188
2012-12-7,63,60,56,59,57,54,100,90,80,29.96,29.92,29.86,10,9,2,14,7,18,0.08,7,Rain,187
2012-12-8,63,61,59,59,58,57,97,94,90,29.96,29.92,29.88,10,7,1,13,4,17,0.44,8,Rain-Thunderstorm,200
2012-12-9,72,65,58,61,59,56,97,79,61,29.92,29.85,29.77,10,8,1,24,9,35,1.06,7,Rain-Thunderstorm,197
2012-12-10,58,46,33,57,38,25,93,81,69,30.09,29.89,29.77,10,9,3,22,13,26,0.55,8,Rain,332
2012-12-11,43,34,25,27,25,23,92,71,49,30.29,30.19,30.09,10,10,10,13,4,16,0.00,2,,19
2012-12-12,51,36,21,29,24,20,96,65,33,30.38,30.33,30.29,10,10,10,9,1,12,0.00,0,,20
2012-12-13,57,39,21,30,23,20,92,58,23,30.42,30.35,30.28,10,10,10,7,2,9,0.00,0,,114
2012-12-14,58,41,24,41,32,22,92,66,40,30.33,30.23,30.09,10,10,10,12,3,15,0.00,1,,166
2012-12-15,62,55,48,57,52,42,86,77,68,30.09,29.91,29.82,10,10,6,20,11,29,0.14,7,Rain,178
2012-12-16,62,60,57,59,57,53,97,88,78,29.84,29.78,29.71,10,10,10,20,9,26,T,4,,193
2012-12-17,65,50,35,56,50,35,100,74,48,29.86,29.72,29.62,10,10,9,23,10,28,0.01,4,Rain,225
2012-12-18,62,45,28,41,34,28,100,70,39,29.95,29.90,29.85,10,6,0,17,6,22,0.00,0,Fog,191
2012-12-19,69,53,36,50,43,36,100,73,45,29.99,29.90,29.73,10,10,10,18,6,28,0.00,1,,158
2012-12-20,63,49,35,61,41,20,83,67,50,30.09,29.72,29.50,10,9,2,39,20,56,0.28,6,Rain,237
2012-12-21,43,36,29,20,17,13,63,48,33,30.33,30.25,30.10,10,10,10,24,13,30,0.00,0,,288
2012-12-22,56,38,19,27,20,14,91,59,26,30.37,30.25,30.11,10,10,10,12,5,15,0.00,0,,191
2012-12-23,53,47,41,52,43,26,100,75,49,30.10,29.97,29.84,10,7,2,18,8,24,0.02,7,Rain,187
2012-12-24,55,46,37,54,48,31,100,86,71,30.02,29.88,29.78,10,7,0,15,6,18,0.15,7,Fog-Rain,329
2012-12-25,38,36,33,35,32,30,92,84,76,30.06,29.87,29.53,10,6,1,29,14,36,0.01,7,Rain,47
2012-12-26,37,35,32,35,29,25,96,83,69,30.19,29.83,29.51,10,7,0,24,14,33,0.03,8,Fog-Snow,320
2012-12-27,38,34,29,28,27,25,92,81,70,30.22,30.15,30.09,10,10,10,9,2,12,0.00,5,,75
2012-12-28,39,35,31,38,35,28,100,91,82,30.09,29.92,29.79,10,7,3,16,4,22,0.04,8,Rain,149
2012-12-29,35,28,21,34,27,19,92,81,69,30.43,30.15,29.88,10,9,3,21,10,26,0.08,7,Snow,303
2012-12-30,43,31,18,27,23,16,92,69,45,30.55,30.46,30.35,10,9,6,6,1,8,0.00,0,,179
2012-12-31,45,39,32,40,34,26,100,77,53,30.34,30.16,30.04,10,8,2,13,4,16,0.34,7,Rain,140